Reklama

Seznam meteostanic a jejich METAR

Vyhledat místa podle abecedy:
A B C D E F G H I J K L M N O P Q R S T U V W X Y Z

Filtrovat:

ID stanice:
a/nebo
Název místa (fulltext):
 
Místo (ID)Naposledy načteno 
Edinburgh (EGPH) 15.11.2018 12:50 UTC Zobrazit METAR
EGPH 151250Z 22009KT CAVOK 15/05 Q1013
Eindhoven (EHEH) 15.11.2018 10:55 UTC Zobrazit METAR
EHEH 151055Z AUTO VRB04KT 9999 OVC350 10/06 Q1025 BLU 13006KT CAVOK
Entebbe (HUEN) 02.09.2018 18:00 UTC Zobrazit METAR
HUEN 021800Z 18001KT 9999 FEW021 23/19 Q1015
Esbjerg (EKEB) 17.10.2018 14:50 UTC Zobrazit METAR
EKEB 171450Z 24006KT 7000 SCT010 16/14 Q1018
Reklama

Počasí na Váš email

Emaily jsou bez reklamy a bez spamu



Odhlásit newsletter

Reklama


Lunární kalendář

  • 23.11.
  • 30.11.
  • 07.12.
  • 15.12.



Reklama


Reklama
Povinné ručení
Reklama



Reklama